sensor_id;sensor_type;location;lat;lon;timestamp;P1;durP1;ratioP1;P2;durP2;ratioP2
80557;SDS011;69901;43.524;-5.636;2023-12-20T00:00:02;17.73;;;3.00;;
80557;SDS011;69901;43.524;-5.636;2023-12-20T00:02:28;14.52;;;2.20;;
80557;SDS011;69901;43.524;-5.636;2023-12-20T00:04:53;25.40;;;2.80;;
80557;SDS011;69901;43.524;-5.636;2023-12-20T00:07:19;10.60;;;1.92;;
80557;SDS011;69901;43.524;-5.636;2023-12-20T00:09:44;18.87;;;3.07;;
80557;SDS011;69901;43.524;-5.636;2023-12-20T00:12:10;15.03;;;2.20;;
80557;SDS011;69901;43.524;-5.636;2023-12-20T00:14:35;15.87;;;2.10;;
80557;SDS011;69901;43.524;-5.636;2023-12-20T00:17:01;14.03;;;2.30;;
80557;SDS011;69901;43.524;-5.636;2023-12-20T00:19:26;7.80;;;1.40;;
80557;SDS011;69901;43.524;-5.636;2023-12-20T00:21:52;12.17;;;2.53;;
80557;SDS011;69901;43.524;-5.636;2023-12-20T00:24:17;10.70;;;1.45;;
80557;SDS011;69901;43.524;-5.636;2023-12-20T00:26:43;10.00;;;1.67;;
80557;SDS011;69901;43.524;-5.636;2023-12-20T00:29:08;20.00;;;2.67;;
80557;SDS011;69901;43.524;-5.636;2023-12-20T00:31:34;9.80;;;2.03;;
80557;SDS011;69901;43.524;-5.636;2023-12-20T00:33:59;15.00;;;1.60;;
80557;SDS011;69901;43.524;-5.636;2023-12-20T00:36:24;13.90;;;1.50;;
80557;SDS011;69901;43.524;-5.636;2023-12-20T00:38:51;13.70;;;2.00;;
80557;SDS011;69901;43.524;-5.636;2023-12-20T00:41:17;18.02;;;2.45;;
80557;SDS011;69901;43.524;-5.636;2023-12-20T00:43:42;16.83;;;1.80;;
80557;SDS011;69901;43.524;-5.636;2023-12-20T00:46:08;21.37;;;2.03;;
80557;SDS011;69901;43.524;-5.636;2023-12-20T00:48:33;17.45;;;1.65;;
80557;SDS011;69901;43.524;-5.636;2023-12-20T00:50:59;17.27;;;1.63;;
80557;SDS011;69901;43.524;-5.636;2023-12-20T00:53:24;14.07;;;1.60;;
80557;SDS011;69901;43.524;-5.636;2023-12-20T00:55:50;10.05;;;1.40;;
80557;SDS011;69901;43.524;-5.636;2023-12-20T00:58:15;10.70;;;1.43;;
80557;SDS011;69901;43.524;-5.636;2023-12-20T01:00:41;16.53;;;2.07;;
80557;SDS011;69901;43.524;-5.636;2023-12-20T01:03:08;17.58;;;1.80;;
80557;SDS011;69901;43.524;-5.636;2023-12-20T01:05:33;10.33;;;1.43;;
80557;SDS011;69901;43.524;-5.636;2023-12-20T01:07:58;18.53;;;2.57;;
80557;SDS011;69901;43.524;-5.636;2023-12-20T01:10:24;12.90;;;3.33;;
80557;SDS011;69901;43.524;-5.636;2023-12-20T01:12:53;10.07;;;3.17;;
80557;SDS011;69901;43.524;-5.636;2023-12-20T01:15:18;8.30;;;2.83;;
80557;SDS011;69901;43.524;-5.636;2023-12-20T01:17:44;6.00;;;3.20;;
80557;SDS011;69901;43.524;-5.636;2023-12-20T01:20:09;11.40;;;3.47;;
80557;SDS011;69901;43.524;-5.636;2023-12-20T01:22:35;9.90;;;3.58;;
80557;SDS011;69901;43.524;-5.636;2023-12-20T01:25:01;38.13;;;35.10;;
80557;SDS011;69901;43.524;-5.636;2023-12-20T01:27:27;48.03;;;43.35;;
80557;SDS011;69901;43.524;-5.636;2023-12-20T01:29:53;52.07;;;47.17;;
80557;SDS011;69901;43.524;-5.636;2023-12-20T01:32:19;42.63;;;38.07;;
80557;SDS011;69901;43.524;-5.636;2023-12-20T01:34:44;37.13;;;33.33;;
80557;SDS011;69901;43.524;-5.636;2023-12-20T01:37:10;34.70;;;28.60;;
80557;SDS011;69901;43.524;-5.636;2023-12-20T01:39:35;36.17;;;32.40;;
80557;SDS011;69901;43.524;-5.636;2023-12-20T01:42:01;57.37;;;52.33;;
80557;SDS011;69901;43.524;-5.636;2023-12-20T01:44:27;39.95;;;36.22;;
80557;SDS011;69901;43.524;-5.636;2023-12-20T01:46:52;37.53;;;34.00;;
80557;SDS011;69901;43.524;-5.636;2023-12-20T01:49:18;38.55;;;34.70;;
80557;SDS011;69901;43.524;-5.636;2023-12-20T01:51:44;44.80;;;41.17;;
80557;SDS011;69901;43.524;-5.636;2023-12-20T01:54:10;46.15;;;42.05;;
80557;SDS011;69901;43.524;-5.636;2023-12-20T01:56:36;32.63;;;29.23;;
80557;SDS011;69901;43.524;-5.636;2023-12-20T01:59:01;40.70;;;31.93;;
80557;SDS011;69901;43.524;-5.636;2023-12-20T02:01:29;39.15;;;33.10;;
80557;SDS011;69901;43.524;-5.636;2023-12-20T02:03:55;40.15;;;36.53;;
80557;SDS011;69901;43.524;-5.636;2023-12-20T02:06:22;39.87;;;31.93;;
80557;SDS011;69901;43.524;-5.636;2023-12-20T02:08:49;44.03;;;39.58;;
80557;SDS011;69901;43.524;-5.636;2023-12-20T02:11:15;34.80;;;31.40;;
80557;SDS011;69901;43.524;-5.636;2023-12-20T02:13:40;21.93;;;19.53;;
80557;SDS011;69901;43.524;-5.636;2023-12-20T02:16:06;23.52;;;21.05;;
80557;SDS011;69901;43.524;-5.636;2023-12-20T02:18:32;23.23;;;20.50;;
80557;SDS011;69901;43.524;-5.636;2023-12-20T02:20:58;29.47;;;26.57;;
80557;SDS011;69901;43.524;-5.636;2023-12-20T02:23:24;25.15;;;19.90;;
80557;SDS011;69901;43.524;-5.636;2023-12-20T02:25:49;16.83;;;13.73;;
80557;SDS011;69901;43.524;-5.636;2023-12-20T02:28:14;21.10;;;18.93;;
80557;SDS011;69901;43.524;-5.636;2023-12-20T02:30:41;17.00;;;14.45;;
80557;SDS011;69901;43.524;-5.636;2023-12-20T02:33:07;45.70;;;31.20;;
80557;SDS011;69901;43.524;-5.636;2023-12-20T02:35:36;24.95;;;22.42;;
80557;SDS011;69901;43.524;-5.636;2023-12-20T02:38:02;19.50;;;16.20;;
80557;SDS011;69901;43.524;-5.636;2023-12-20T02:40:27;21.17;;;18.97;;
80557;SDS011;69901;43.524;-5.636;2023-12-20T02:42:53;21.47;;;19.37;;
80557;SDS011;69901;43.524;-5.636;2023-12-20T02:45:18;25.15;;;23.30;;
80557;SDS011;69901;43.524;-5.636;2023-12-20T02:47:45;31.60;;;28.73;;
80557;SDS011;69901;43.524;-5.636;2023-12-20T02:50:10;29.20;;;25.77;;
80557;SDS011;69901;43.524;-5.636;2023-12-20T02:52:36;27.93;;;24.93;;
80557;SDS011;69901;43.524;-5.636;2023-12-20T02:55:01;23.03;;;20.63;;
80557;SDS011;69901;43.524;-5.636;2023-12-20T02:57:27;25.50;;;23.47;;
80557;SDS011;69901;43.524;-5.636;2023-12-20T02:59:52;16.33;;;14.87;;
80557;SDS011;69901;43.524;-5.636;2023-12-20T03:02:18;24.07;;;22.37;;
80557;SDS011;69901;43.524;-5.636;2023-12-20T03:04:44;26.42;;;24.38;;
80557;SDS011;69901;43.524;-5.636;2023-12-20T03:07:09;25.30;;;23.37;;
80557;SDS011;69901;43.524;-5.636;2023-12-20T03:09:35;19.90;;;18.20;;
80557;SDS011;69901;43.524;-5.636;2023-12-20T03:12:00;22.08;;;19.98;;
80557;SDS011;69901;43.524;-5.636;2023-12-20T03:14:25;22.40;;;20.57;;
80557;SDS011;69901;43.524;-5.636;2023-12-20T03:16:51;22.20;;;20.43;;
80557;SDS011;69901;43.524;-5.636;2023-12-20T03:19:20;25.65;;;23.40;;
80557;SDS011;69901;43.524;-5.636;2023-12-20T03:21:45;21.40;;;19.40;;
80557;SDS011;69901;43.524;-5.636;2023-12-20T03:24:11;21.90;;;20.40;;
80557;SDS011;69901;43.524;-5.636;2023-12-20T03:26:36;21.37;;;19.53;;
80557;SDS011;69901;43.524;-5.636;2023-12-20T03:29:02;20.60;;;17.97;;
80557;SDS011;69901;43.524;-5.636;2023-12-20T03:31:27;26.23;;;24.02;;
80557;SDS011;69901;43.524;-5.636;2023-12-20T03:33:52;14.13;;;6.97;;
80557;SDS011;69901;43.524;-5.636;2023-12-20T03:36:19;13.27;;;2.13;;
80557;SDS011;69901;43.524;-5.636;2023-12-20T03:38:45;21.27;;;13.73;;
80557;SDS011;69901;43.524;-5.636;2023-12-20T03:41:10;19.77;;;16.60;;
80557;SDS011;69901;43.524;-5.636;2023-12-20T03:43:36;18.67;;;16.83;;
80557;SDS011;69901;43.524;-5.636;2023-12-20T03:46:02;18.65;;;12.93;;
80557;SDS011;69901;43.524;-5.636;2023-12-20T03:48:29;15.33;;;10.03;;
80557;SDS011;69901;43.524;-5.636;2023-12-20T03:50:55;21.38;;;9.38;;
80557;SDS011;69901;43.524;-5.636;2023-12-20T03:53:20;19.97;;;8.47;;
80557;SDS011;69901;43.524;-5.636;2023-12-20T03:55:46;20.50;;;12.98;;
80557;SDS011;69901;43.524;-5.636;2023-12-20T03:58:11;24.07;;;13.07;;
80557;SDS011;69901;43.524;-5.636;2023-12-20T04:00:36;17.03;;;10.83;;
80557;SDS011;69901;43.524;-5.636;2023-12-20T04:03:02;24.83;;;15.93;;
80557;SDS011;69901;43.524;-5.636;2023-12-20T04:05:27;26.58;;;12.48;;
80557;SDS011;69901;43.524;-5.636;2023-12-20T04:07:53;16.90;;;10.50;;
80557;SDS011;69901;43.524;-5.636;2023-12-20T04:10:18;18.23;;;11.33;;
80557;SDS011;69901;43.524;-5.636;2023-12-20T04:12:44;18.20;;;5.83;;
80557;SDS011;69901;43.524;-5.636;2023-12-20T04:15:09;10.43;;;2.50;;
80557;SDS011;69901;43.524;-5.636;2023-12-20T04:17:35;14.50;;;2.00;;
80557;SDS011;69901;43.524;-5.636;2023-12-20T04:20:01;9.25;;;1.10;;
80557;SDS011;69901;43.524;-5.636;2023-12-20T04:22:26;9.50;;;1.93;;
80557;SDS011;69901;43.524;-5.636;2023-12-20T04:24:52;11.23;;;1.40;;
80557;SDS011;69901;43.524;-5.636;2023-12-20T04:27:17;7.70;;;0.80;;
80557;SDS011;69901;43.524;-5.636;2023-12-20T04:29:43;15.23;;;1.37;;
80557;SDS011;69901;43.524;-5.636;2023-12-20T04:32:08;19.10;;;2.53;;
80557;SDS011;69901;43.524;-5.636;2023-12-20T04:34:33;13.47;;;2.03;;
80557;SDS011;69901;43.524;-5.636;2023-12-20T04:36:59;14.75;;;1.77;;
80557;SDS011;69901;43.524;-5.636;2023-12-20T04:39:26;17.17;;;2.25;;
80557;SDS011;69901;43.524;-5.636;2023-12-20T04:41:52;13.03;;;1.93;;
80557;SDS011;69901;43.524;-5.636;2023-12-20T04:44:17;19.33;;;2.33;;
80557;SDS011;69901;43.524;-5.636;2023-12-20T04:46:43;18.58;;;2.45;;
80557;SDS011;69901;43.524;-5.636;2023-12-20T04:49:09;17.50;;;1.80;;
80557;SDS011;69901;43.524;-5.636;2023-12-20T04:51:35;13.13;;;1.90;;
80557;SDS011;69901;43.524;-5.636;2023-12-20T04:54:01;12.07;;;1.57;;
80557;SDS011;69901;43.524;-5.636;2023-12-20T04:56:27;16.50;;;1.70;;
80557;SDS011;69901;43.524;-5.636;2023-12-20T04:58:52;12.03;;;2.00;;
80557;SDS011;69901;43.524;-5.636;2023-12-20T05:01:18;14.23;;;1.53;;
80557;SDS011;69901;43.524;-5.636;2023-12-20T05:03:43;14.53;;;1.93;;
80557;SDS011;69901;43.524;-5.636;2023-12-20T05:06:09;14.18;;;1.60;;
80557;SDS011;69901;43.524;-5.636;2023-12-20T05:08:38;18.77;;;3.53;;
80557;SDS011;69901;43.524;-5.636;2023-12-20T05:11:03;13.23;;;2.08;;
80557;SDS011;69901;43.524;-5.636;2023-12-20T05:13:29;8.93;;;1.23;;
80557;SDS011;69901;43.524;-5.636;2023-12-20T05:15:55;10.18;;;1.67;;
80557;SDS011;69901;43.524;-5.636;2023-12-20T05:18:20;17.60;;;2.10;;
80557;SDS011;69901;43.524;-5.636;2023-12-20T05:20:48;13.07;;;1.67;;
80557;SDS011;69901;43.524;-5.636;2023-12-20T05:23:14;14.65;;;1.95;;
80557;SDS011;69901;43.524;-5.636;2023-12-20T05:25:40;14.57;;;1.47;;
80557;SDS011;69901;43.524;-5.636;2023-12-20T05:28:05;13.38;;;1.83;;
80557;SDS011;69901;43.524;-5.636;2023-12-20T05:30:31;11.37;;;1.30;;
80557;SDS011;69901;43.524;-5.636;2023-12-20T05:32:56;8.33;;;1.40;;
80557;SDS011;69901;43.524;-5.636;2023-12-20T05:35:22;8.98;;;1.83;;
80557;SDS011;69901;43.524;-5.636;2023-12-20T05:37:48;11.73;;;1.20;;
80557;SDS011;69901;43.524;-5.636;2023-12-20T05:40:14;7.72;;;1.40;;
80557;SDS011;69901;43.524;-5.636;2023-12-20T05:42:39;11.77;;;1.50;;
80557;SDS011;69901;43.524;-5.636;2023-12-20T05:45:05;12.30;;;1.13;;
80557;SDS011;69901;43.524;-5.636;2023-12-20T05:47:31;11.80;;;1.50;;
80557;SDS011;69901;43.524;-5.636;2023-12-20T05:49:56;14.95;;;2.03;;
80557;SDS011;69901;43.524;-5.636;2023-12-20T05:52:22;6.83;;;1.67;;
80557;SDS011;69901;43.524;-5.636;2023-12-20T05:54:48;8.75;;;1.20;;
80557;SDS011;69901;43.524;-5.636;2023-12-20T05:57:13;16.70;;;1.60;;
80557;SDS011;69901;43.524;-5.636;2023-12-20T05:59:39;14.20;;;1.53;;
80557;SDS011;69901;43.524;-5.636;2023-12-20T06:02:04;9.80;;;1.42;;
80557;SDS011;69901;43.524;-5.636;2023-12-20T06:04:30;8.60;;;1.20;;
80557;SDS011;69901;43.524;-5.636;2023-12-20T06:06:56;9.30;;;1.67;;
80557;SDS011;69901;43.524;-5.636;2023-12-20T06:09:21;9.03;;;1.60;;
80557;SDS011;69901;43.524;-5.636;2023-12-20T06:11:47;11.63;;;1.67;;
80557;SDS011;69901;43.524;-5.636;2023-12-20T06:14:12;10.38;;;1.60;;
80557;SDS011;69901;43.524;-5.636;2023-12-20T06:16:38;10.70;;;1.30;;
80557;SDS011;69901;43.524;-5.636;2023-12-20T06:19:03;12.47;;;1.80;;
80557;SDS011;69901;43.524;-5.636;2023-12-20T06:21:30;11.63;;;1.23;;
80557;SDS011;69901;43.524;-5.636;2023-12-20T06:23:55;12.97;;;1.53;;
80557;SDS011;69901;43.524;-5.636;2023-12-20T06:26:21;12.52;;;1.33;;
80557;SDS011;69901;43.524;-5.636;2023-12-20T06:28:46;10.40;;;0.93;;
80557;SDS011;69901;43.524;-5.636;2023-12-20T06:31:12;10.37;;;1.10;;
80557;SDS011;69901;43.524;-5.636;2023-12-20T06:33:37;9.20;;;1.50;;
80557;SDS011;69901;43.524;-5.636;2023-12-20T06:36:05;12.55;;;1.23;;
80557;SDS011;69901;43.524;-5.636;2023-12-20T06:38:31;11.50;;;2.17;;
80557;SDS011;69901;43.524;-5.636;2023-12-20T06:40:56;10.27;;;1.20;;
80557;SDS011;69901;43.524;-5.636;2023-12-20T06:43:23;9.77;;;1.10;;
80557;SDS011;69901;43.524;-5.636;2023-12-20T06:45:49;12.90;;;1.77;;
80557;SDS011;69901;43.524;-5.636;2023-12-20T06:48:14;13.47;;;2.03;;
80557;SDS011;69901;43.524;-5.636;2023-12-20T06:50:40;11.10;;;1.60;;
80557;SDS011;69901;43.524;-5.636;2023-12-20T06:53:05;14.17;;;2.13;;
80557;SDS011;69901;43.524;-5.636;2023-12-20T06:55:32;13.30;;;1.83;;
80557;SDS011;69901;43.524;-5.636;2023-12-20T06:58:02;11.13;;;1.10;;
80557;SDS011;69901;43.524;-5.636;2023-12-20T07:00:29;11.95;;;1.30;;
80557;SDS011;69901;43.524;-5.636;2023-12-20T07:02:55;12.18;;;1.42;;
80557;SDS011;69901;43.524;-5.636;2023-12-20T07:05:20;14.23;;;1.30;;
80557;SDS011;69901;43.524;-5.636;2023-12-20T07:07:46;14.32;;;1.50;;
80557;SDS011;69901;43.524;-5.636;2023-12-20T07:10:13;12.02;;;1.83;;
80557;SDS011;69901;43.524;-5.636;2023-12-20T07:12:38;10.23;;;1.57;;
80557;SDS011;69901;43.524;-5.636;2023-12-20T07:15:04;11.20;;;1.10;;
80557;SDS011;69901;43.524;-5.636;2023-12-20T07:17:31;9.37;;;1.50;;
80557;SDS011;69901;43.524;-5.636;2023-12-20T07:19:58;9.93;;;1.20;;
80557;SDS011;69901;43.524;-5.636;2023-12-20T07:22:23;10.45;;;1.30;;
80557;SDS011;69901;43.524;-5.636;2023-12-20T07:24:49;12.87;;;1.40;;
80557;SDS011;69901;43.524;-5.636;2023-12-20T07:27:17;10.70;;;1.10;;
80557;SDS011;69901;43.524;-5.636;2023-12-20T07:29:42;11.63;;;1.83;;
80557;SDS011;69901;43.524;-5.636;2023-12-20T07:32:08;9.43;;;0.88;;
80557;SDS011;69901;43.524;-5.636;2023-12-20T07:34:33;9.17;;;1.53;;
80557;SDS011;69901;43.524;-5.636;2023-12-20T07:36:59;9.90;;;0.90;;
80557;SDS011;69901;43.524;-5.636;2023-12-20T07:39:24;12.73;;;1.60;;
80557;SDS011;69901;43.524;-5.636;2023-12-20T07:41:50;10.50;;;1.60;;
80557;SDS011;69901;43.524;-5.636;2023-12-20T07:44:15;8.00;;;1.27;;
80557;SDS011;69901;43.524;-5.636;2023-12-20T07:46:41;8.97;;;1.00;;
80557;SDS011;69901;43.524;-5.636;2023-12-20T07:49:06;9.13;;;1.27;;
80557;SDS011;69901;43.524;-5.636;2023-12-20T07:51:33;8.13;;;1.40;;
80557;SDS011;69901;43.524;-5.636;2023-12-20T07:53:59;9.88;;;0.82;;
80557;SDS011;69901;43.524;-5.636;2023-12-20T07:56:24;8.03;;;1.27;;
80557;SDS011;69901;43.524;-5.636;2023-12-20T07:58:50;12.77;;;1.10;;
80557;SDS011;69901;43.524;-5.636;2023-12-20T08:01:15;11.18;;;1.17;;
80557;SDS011;69901;43.524;-5.636;2023-12-20T08:03:42;11.63;;;1.70;;
80557;SDS011;69901;43.524;-5.636;2023-12-20T08:06:08;9.35;;;1.10;;
80557;SDS011;69901;43.524;-5.636;2023-12-20T08:08:33;9.83;;;1.27;;
80557;SDS011;69901;43.524;-5.636;2023-12-20T08:10:58;6.57;;;1.03;;
80557;SDS011;69901;43.524;-5.636;2023-12-20T08:13:25;11.77;;;0.88;;
80557;SDS011;69901;43.524;-5.636;2023-12-20T08:15:52;10.20;;;1.42;;
80557;SDS011;69901;43.524;-5.636;2023-12-20T08:18:18;8.80;;;1.00;;
80557;SDS011;69901;43.524;-5.636;2023-12-20T08:20:44;8.52;;;1.20;;
80557;SDS011;69901;43.524;-5.636;2023-12-20T08:23:09;6.97;;;1.40;;
80557;SDS011;69901;43.524;-5.636;2023-12-20T08:25:35;10.73;;;1.50;;
80557;SDS011;69901;43.524;-5.636;2023-12-20T08:28:03;9.20;;;1.37;;
80557;SDS011;69901;43.524;-5.636;2023-12-20T08:30:29;9.63;;;1.30;;
80557;SDS011;69901;43.524;-5.636;2023-12-20T08:32:56;8.00;;;0.90;;
80557;SDS011;69901;43.524;-5.636;2023-12-20T08:35:21;7.67;;;1.17;;
80557;SDS011;69901;43.524;-5.636;2023-12-20T08:37:47;7.55;;;1.20;;
80557;SDS011;69901;43.524;-5.636;2023-12-20T08:40:13;11.80;;;1.20;;
80557;SDS011;69901;43.524;-5.636;2023-12-20T08:42:38;9.25;;;1.30;;
80557;SDS011;69901;43.524;-5.636;2023-12-20T08:45:04;5.80;;;1.00;;
80557;SDS011;69901;43.524;-5.636;2023-12-20T08:47:30;6.93;;;1.10;;
80557;SDS011;69901;43.524;-5.636;2023-12-20T08:49:55;9.07;;;1.47;;
80557;SDS011;69901;43.524;-5.636;2023-12-20T08:52:25;6.97;;;1.40;;
80557;SDS011;69901;43.524;-5.636;2023-12-20T08:54:52;5.43;;;1.20;;
80557;SDS011;69901;43.524;-5.636;2023-12-20T08:57:21;7.93;;;1.80;;
80557;SDS011;69901;43.524;-5.636;2023-12-20T08:59:48;8.77;;;1.37;;
80557;SDS011;69901;43.524;-5.636;2023-12-20T09:02:14;10.48;;;1.95;;
80557;SDS011;69901;43.524;-5.636;2023-12-20T09:04:40;6.97;;;1.50;;
80557;SDS011;69901;43.524;-5.636;2023-12-20T09:07:05;9.83;;;1.37;;
80557;SDS011;69901;43.524;-5.636;2023-12-20T09:09:35;9.25;;;1.70;;
80557;SDS011;69901;43.524;-5.636;2023-12-20T09:12:05;10.40;;;1.50;;
80557;SDS011;69901;43.524;-5.636;2023-12-20T09:14:33;10.63;;;1.43;;
80557;SDS011;69901;43.524;-5.636;2023-12-20T09:17:07;14.10;;;2.13;;
80557;SDS011;69901;43.524;-5.636;2023-12-20T09:19:37;9.45;;;1.60;;
80557;SDS011;69901;43.524;-5.636;2023-12-20T09:22:03;14.90;;;3.10;;
80557;SDS011;69901;43.524;-5.636;2023-12-20T09:24:28;16.93;;;4.50;;
80557;SDS011;69901;43.524;-5.636;2023-12-20T09:26:55;13.98;;;3.67;;
80557;SDS011;69901;43.524;-5.636;2023-12-20T09:29:20;9.13;;;2.20;;
80557;SDS011;69901;43.524;-5.636;2023-12-20T09:31:46;8.00;;;2.10;;
80557;SDS011;69901;43.524;-5.636;2023-12-20T09:34:11;11.37;;;6.47;;
80557;SDS011;69901;43.524;-5.636;2023-12-20T09:36:37;13.88;;;11.73;;
80557;SDS011;69901;43.524;-5.636;2023-12-20T09:39:05;16.97;;;10.63;;
80557;SDS011;69901;43.524;-5.636;2023-12-20T09:41:31;21.92;;;10.13;;
80557;SDS011;69901;43.524;-5.636;2023-12-20T09:44:02;19.40;;;10.10;;
80557;SDS011;69901;43.524;-5.636;2023-12-20T09:46:28;16.27;;;7.87;;
80557;SDS011;69901;43.524;-5.636;2023-12-20T09:48:58;12.95;;;5.95;;
80557;SDS011;69901;43.524;-5.636;2023-12-20T09:51:26;14.95;;;3.58;;
80557;SDS011;69901;43.524;-5.636;2023-12-20T09:53:54;16.57;;;3.13;;
80557;SDS011;69901;43.524;-5.636;2023-12-20T09:56:22;13.90;;;2.70;;
80557;SDS011;69901;43.524;-5.636;2023-12-20T09:58:48;17.40;;;3.30;;
80557;SDS011;69901;43.524;-5.636;2023-12-20T10:01:14;12.53;;;3.30;;
80557;SDS011;69901;43.524;-5.636;2023-12-20T10:03:41;11.93;;;3.30;;
80557;SDS011;69901;43.524;-5.636;2023-12-20T10:06:07;15.77;;;3.80;;
80557;SDS011;69901;43.524;-5.636;2023-12-20T10:08:32;13.03;;;4.00;;
80557;SDS011;69901;43.524;-5.636;2023-12-20T10:10:58;11.03;;;3.60;;
80557;SDS011;69901;43.524;-5.636;2023-12-20T10:13:27;11.85;;;3.70;;
80557;SDS011;69901;43.524;-5.636;2023-12-20T10:15:54;11.85;;;3.33;;
80557;SDS011;69901;43.524;-5.636;2023-12-20T10:18:20;14.32;;;3.35;;
80557;SDS011;69901;43.524;-5.636;2023-12-20T10:20:46;14.90;;;3.50;;
80557;SDS011;69901;43.524;-5.636;2023-12-20T10:23:12;10.88;;;2.88;;
80557;SDS011;69901;43.524;-5.636;2023-12-20T10:25:39;10.80;;;3.25;;
80557;SDS011;69901;43.524;-5.636;2023-12-20T10:30:39;13.63;;;3.40;;
80557;SDS011;69901;43.524;-5.636;2023-12-20T10:33:06;9.03;;;3.10;;
80557;SDS011;69901;43.524;-5.636;2023-12-20T10:35:35;13.70;;;3.70;;
80557;SDS011;69901;43.524;-5.636;2023-12-20T10:38:03;12.75;;;4.88;;
80557;SDS011;69901;43.524;-5.636;2023-12-20T10:40:30;15.65;;;4.57;;
80557;SDS011;69901;43.524;-5.636;2023-12-20T10:42:56;10.30;;;4.25;;
80557;SDS011;69901;43.524;-5.636;2023-12-20T10:45:24;12.03;;;4.60;;
80557;SDS011;69901;43.524;-5.636;2023-12-20T10:47:50;11.93;;;4.40;;
80557;SDS011;69901;43.524;-5.636;2023-12-20T10:50:16;12.83;;;3.93;;
80557;SDS011;69901;43.524;-5.636;2023-12-20T10:52:44;10.33;;;3.10;;
80557;SDS011;69901;43.524;-5.636;2023-12-20T10:55:11;7.93;;;3.03;;
80557;SDS011;69901;43.524;-5.636;2023-12-20T10:57:37;10.48;;;3.65;;
80557;SDS011;69901;43.524;-5.636;2023-12-20T11:00:03;9.10;;;3.03;;
80557;SDS011;69901;43.524;-5.636;2023-12-20T11:02:36;11.00;;;3.10;;
80557;SDS011;69901;43.524;-5.636;2023-12-20T11:05:06;6.78;;;2.47;;
80557;SDS011;69901;43.524;-5.636;2023-12-20T11:07:38;9.85;;;3.00;;
80557;SDS011;69901;43.524;-5.636;2023-12-20T11:12:53;8.18;;;2.88;;
80557;SDS011;69901;43.524;-5.636;2023-12-20T11:15:24;7.93;;;3.13;;
80557;SDS011;69901;43.524;-5.636;2023-12-20T11:17:56;11.15;;;2.90;;
80557;SDS011;69901;43.524;-5.636;2023-12-20T11:20:23;9.90;;;3.40;;
80557;SDS011;69901;43.524;-5.636;2023-12-20T11:22:53;11.52;;;3.55;;
80557;SDS011;69901;43.524;-5.636;2023-12-20T11:25:19;12.35;;;4.35;;
80557;SDS011;69901;43.524;-5.636;2023-12-20T11:27:47;7.87;;;3.40;;
80557;SDS011;69901;43.524;-5.636;2023-12-20T11:33:15;7.15;;;3.30;;
80557;SDS011;69901;43.524;-5.636;2023-12-20T11:35:41;9.85;;;3.65;;
80557;SDS011;69901;43.524;-5.636;2023-12-20T11:38:10;10.93;;;3.90;;
80557;SDS011;69901;43.524;-5.636;2023-12-20T11:40:37;14.37;;;4.30;;
80557;SDS011;69901;43.524;-5.636;2023-12-20T11:43:02;11.50;;;6.90;;
80557;SDS011;69901;43.524;-5.636;2023-12-20T11:45:30;10.53;;;3.97;;
80557;SDS011;69901;43.524;-5.636;2023-12-20T11:47:57;13.23;;;4.00;;
80557;SDS011;69901;43.524;-5.636;2023-12-20T11:50:25;11.02;;;4.30;;
80557;SDS011;69901;43.524;-5.636;2023-12-20T11:52:51;12.00;;;4.70;;
80557;SDS011;69901;43.524;-5.636;2023-12-20T11:55:18;14.77;;;8.02;;
80557;SDS011;69901;43.524;-5.636;2023-12-20T11:57:44;11.27;;;4.90;;
80557;SDS011;69901;43.524;-5.636;2023-12-20T12:00:10;13.15;;;5.32;;
80557;SDS011;69901;43.524;-5.636;2023-12-20T12:02:36;17.77;;;5.85;;
80557;SDS011;69901;43.524;-5.636;2023-12-20T12:05:01;8.90;;;4.83;;
80557;SDS011;69901;43.524;-5.636;2023-12-20T12:07:27;13.60;;;4.67;;
80557;SDS011;69901;43.524;-5.636;2023-12-20T12:09:52;8.60;;;5.38;;
80557;SDS011;69901;43.524;-5.636;2023-12-20T12:12:19;9.33;;;4.53;;
80557;SDS011;69901;43.524;-5.636;2023-12-20T12:14:45;8.32;;;3.92;;
80557;SDS011;69901;43.524;-5.636;2023-12-20T12:17:11;8.38;;;4.00;;
80557;SDS011;69901;43.524;-5.636;2023-12-20T12:19:38;9.23;;;3.97;;
80557;SDS011;69901;43.524;-5.636;2023-12-20T12:22:04;9.93;;;4.13;;
80557;SDS011;69901;43.524;-5.636;2023-12-20T12:24:37;9.30;;;4.18;;
80557;SDS011;69901;43.524;-5.636;2023-12-20T12:27:05;8.68;;;3.40;;
80557;SDS011;69901;43.524;-5.636;2023-12-20T12:29:32;9.90;;;4.15;;
80557;SDS011;69901;43.524;-5.636;2023-12-20T12:31:57;7.80;;;4.27;;
80557;SDS011;69901;43.524;-5.636;2023-12-20T12:34:23;10.17;;;4.60;;
80557;SDS011;69901;43.524;-5.636;2023-12-20T12:36:49;9.27;;;5.00;;
80557;SDS011;69901;43.524;-5.636;2023-12-20T12:39:15;9.90;;;5.03;;
80557;SDS011;69901;43.524;-5.636;2023-12-20T12:41:42;9.43;;;5.10;;
80557;SDS011;69901;43.524;-5.636;2023-12-20T12:44:08;7.95;;;5.00;;
80557;SDS011;69901;43.524;-5.636;2023-12-20T12:46:34;6.87;;;4.60;;
80557;SDS011;69901;43.524;-5.636;2023-12-20T12:48:59;10.73;;;4.22;;
80557;SDS011;69901;43.524;-5.636;2023-12-20T12:51:25;7.53;;;4.00;;
80557;SDS011;69901;43.524;-5.636;2023-12-20T12:53:51;7.53;;;4.83;;
80557;SDS011;69901;43.524;-5.636;2023-12-20T12:56:18;8.68;;;5.10;;
80557;SDS011;69901;43.524;-5.636;2023-12-20T12:58:43;8.07;;;6.63;;
80557;SDS011;69901;43.524;-5.636;2023-12-20T13:01:09;10.15;;;6.07;;
80557;SDS011;69901;43.524;-5.636;2023-12-20T13:03:35;10.70;;;5.37;;
80557;SDS011;69901;43.524;-5.636;2023-12-20T13:06:01;10.27;;;5.53;;
80557;SDS011;69901;43.524;-5.636;2023-12-20T13:08:26;10.73;;;4.73;;
80557;SDS011;69901;43.524;-5.636;2023-12-20T13:10:53;8.77;;;4.30;;
80557;SDS011;69901;43.524;-5.636;2023-12-20T13:13:18;7.93;;;4.57;;
80557;SDS011;69901;43.524;-5.636;2023-12-20T13:15:44;11.87;;;3.93;;
80557;SDS011;69901;43.524;-5.636;2023-12-20T13:18:16;8.68;;;4.10;;
80557;SDS011;69901;43.524;-5.636;2023-12-20T13:20:43;7.93;;;4.57;;
80557;SDS011;69901;43.524;-5.636;2023-12-20T13:23:09;8.20;;;4.67;;
80557;SDS011;69901;43.524;-5.636;2023-12-20T13:25:35;9.23;;;4.50;;
80557;SDS011;69901;43.524;-5.636;2023-12-20T13:28:00;8.63;;;4.80;;
80557;SDS011;69901;43.524;-5.636;2023-12-20T13:30:27;7.88;;;4.30;;
80557;SDS011;69901;43.524;-5.636;2023-12-20T13:32:53;9.77;;;4.00;;
80557;SDS011;69901;43.524;-5.636;2023-12-20T13:35:19;10.60;;;3.75;;
80557;SDS011;69901;43.524;-5.636;2023-12-20T13:37:45;9.47;;;6.73;;
80557;SDS011;69901;43.524;-5.636;2023-12-20T13:40:11;12.95;;;8.57;;
80557;SDS011;69901;43.524;-5.636;2023-12-20T13:42:37;11.57;;;7.78;;
80557;SDS011;69901;43.524;-5.636;2023-12-20T13:45:03;10.05;;;7.13;;
80557;SDS011;69901;43.524;-5.636;2023-12-20T13:47:30;7.47;;;5.40;;
80557;SDS011;69901;43.524;-5.636;2023-12-20T13:49:56;7.13;;;4.63;;
80557;SDS011;69901;43.524;-5.636;2023-12-20T13:52:22;13.43;;;5.38;;
80557;SDS011;69901;43.524;-5.636;2023-12-20T13:54:47;7.07;;;3.90;;
80557;SDS011;69901;43.524;-5.636;2023-12-20T13:57:13;8.33;;;4.50;;
80557;SDS011;69901;43.524;-5.636;2023-12-20T13:59:38;7.20;;;4.00;;
80557;SDS011;69901;43.524;-5.636;2023-12-20T14:02:04;10.33;;;4.83;;
80557;SDS011;69901;43.524;-5.636;2023-12-20T14:04:30;7.93;;;3.50;;
80557;SDS011;69901;43.524;-5.636;2023-12-20T14:06:56;7.73;;;4.50;;
80557;SDS011;69901;43.524;-5.636;2023-12-20T14:09:21;14.15;;;8.43;;
80557;SDS011;69901;43.524;-5.636;2023-12-20T14:11:47;19.80;;;11.87;;
80557;SDS011;69901;43.524;-5.636;2023-12-20T14:14:13;19.90;;;12.05;;
80557;SDS011;69901;43.524;-5.636;2023-12-20T14:16:38;13.90;;;7.53;;
80557;SDS011;69901;43.524;-5.636;2023-12-20T14:19:04;12.48;;;7.03;;
80557;SDS011;69901;43.524;-5.636;2023-12-20T14:21:32;10.17;;;4.50;;
80557;SDS011;69901;43.524;-5.636;2023-12-20T14:23:58;7.70;;;4.30;;